Time;durP1;ratioP1;P1;durP2;ratioP2;P2;SDS_P1;SDS_P2;PMS_P1;PMS_P2;Temp;Humidity;BMP_temperature;BMP_pressure;BME280_temperature;BME280_humidity;BME280_pressure;Samples;Min_cycle;Max_cycle;Signal;HPM_P1;HPM_P2
2021/03/09 00:00:40;;;;;;;7.30;4.28;;;;;;;-1.34;55.79;93145.56;5010074;28;20426;-78
2021/03/09 00:03:06;;;;;;;;;;;;;;;-1.33;54.90;93153.91;5009887;28;20516;-78
2021/03/09 00:05:32;;;;;;;12.57;5.07;;;;;;;-1.45;55.32;93143.22;5015857;28;19921;-78
2021/03/09 00:07:58;;;;;;;;;;;;;;;-1.39;56.20;93150.22;5029732;28;20050;-78
2021/03/09 00:10:24;;;;;;;13.02;5.97;;;;;;;-1.46;57.10;93152.50;5016846;28;19969;-78
2021/03/09 00:12:50;;;;;;;;;;;;;;;-1.34;57.63;93145.56;5010293;28;20081;-78
2021/03/09 00:15:18;;;;;;;6.22;4.57;;;;;;;-1.39;57.62;93148.47;5009503;28;20319;-78
2021/03/09 00:17:44;;;;;;;13.43;6.63;;;;;;;-1.36;58.13;93153.25;5009247;28;20053;-77
2021/03/09 00:20:11;;;;;;;12.05;6.47;;;;;;;-1.33;56.14;93162.25;5009882;28;20068;-78
2021/03/09 00:22:37;;;;;;;9.50;5.97;;;;;;;-1.33;56.73;93163.97;5009444;28;20050;-77
2021/03/09 00:25:05;;;;;;;12.65;6.63;;;;;;;-1.33;57.21;93164.78;5009525;28;20050;-77
2021/03/09 00:27:31;;;;;;;7.20;3.95;;;;;;;-1.42;57.27;93166.41;5012590;28;20098;-77
2021/03/09 00:29:57;;;;;;;5.00;2.47;;;;;;;-1.46;57.08;93160.03;5013642;28;20050;-78
2021/03/09 00:32:24;;;;;;;;;;;;;;;-1.49;57.06;93158.59;5013618;28;20054;-78
2021/03/09 00:34:50;;;;;;;2.85;2.58;;;;;;;-1.54;56.26;93164.97;5013426;28;20274;-78
2021/03/09 00:37:16;;;;;;;6.22;3.90;;;;;;;-1.55;56.80;93161.66;5013490;28;20053;-77
2021/03/09 00:39:42;;;;;;;;;;;;;;;-1.59;56.29;93165.38;5013288;28;20054;-77
2021/03/09 00:42:09;;;;;;;3.55;2.25;;;;;;;-1.64;56.69;93155.72;5013087;28;20332;-77
2021/03/09 00:44:35;;;;;;;7.68;3.33;;;;;;;-1.58;56.37;93164.44;5013748;28;20054;-77
2021/03/09 00:47:02;;;;;;;2.63;2.00;;;;;;;-1.62;55.23;93158.09;5013072;28;20497;-77
2021/03/09 00:49:28;;;;;;;;;;;;;;;-1.64;54.72;93167.50;5014021;28;20053;-77
2021/03/09 00:51:55;;;;;;;2.20;2.00;;;;;;;-1.75;54.09;93156.66;5013242;28;19922;-77
2021/03/09 00:54:21;;;;;;;;;;;;;;;-1.73;56.45;93156.53;5013667;28;20477;-77
2021/03/09 00:56:47;;;;;;;4.95;2.58;;;;;;;-1.75;56.05;93154.13;5012929;28;19972;-77
2021/03/09 00:59:13;;;;;;;;;;;;;;;-1.81;54.66;93148.88;5012962;28;20405;-77
2021/03/09 01:01:39;;;;;;;4.43;2.95;;;;;;;-1.83;55.98;93148.19;5012704;28;19922;-77
2021/03/09 01:04:05;;;;;;;3.45;1.88;;;;;;;-1.75;56.58;93149.09;5013025;28;20065;-77
2021/03/09 01:06:32;;;;;;;;;;;;;;;-1.70;55.90;93143.69;5012996;28;20042;-77
2021/03/09 01:08:58;;;;;;;3.33;2.50;;;;;;;-1.75;56.64;93144.06;5012682;28;19925;-77
2021/03/09 01:11:25;;;;;;;11.77;3.80;;;;;;;-1.75;57.19;93135.72;5012686;28;20080;-77
2021/03/09 01:13:51;;;;;;;;;;;;;;;-1.62;57.00;93146.28;5013477;28;20054;-77
2021/03/09 01:16:17;;;;;;;4.93;3.17;;;;;;;-1.61;57.10;93147.88;5012385;28;19931;-77
2021/03/09 01:18:43;;;;;;;;;;;;;;;-1.65;57.74;93149.09;5013079;28;20399;-77
2021/03/09 01:21:09;;;;;;;7.88;3.03;;;;;;;-1.73;57.17;93148.97;5012391;28;19921;-77
2021/03/09 01:23:36;;;;;;;;;;;;;;;-1.74;57.37;93147.38;5012706;28;20495;-77
2021/03/09 01:26:02;;;;;;;7.28;2.80;;;;;;;-1.97;56.38;93124.22;5012802;28;19960;-77
2021/03/09 01:28:28;;;;;;;;;;;;;;;-1.91;56.09;93139.59;5012305;28;20053;-77
2021/03/09 01:30:54;;;;;;;4.75;3.53;;;;;;;-1.95;57.08;93150.09;5012409;28;19926;-77
2021/03/09 01:33:20;;;;;;;;;;;;;;;-1.96;57.55;93141.72;5012628;28;20090;-77
2021/03/09 01:35:46;;;;;;;5.97;2.58;;;;;;;-1.95;58.11;93150.88;5012147;28;19922;-77
2021/03/09 01:38:13;;;;;;;;;;;;;;;-1.91;57.46;93143.84;5011815;28;20054;-77
2021/03/09 01:40:40;;;;;;;5.05;2.17;;;;;;;-1.95;57.70;93135.75;5011552;28;20381;-77
2021/03/09 01:43:06;;;;;;;10.18;4.57;;;;;;;-1.85;57.07;93147.53;5012066;28;20057;-77
2021/03/09 01:45:32;;;;;;;;;;;;;;;-1.71;57.95;93156.41;5012625;28;20548;-77
2021/03/09 01:48:02;;;;;;;6.43;4.18;;;;;;;-1.65;57.64;93153.34;5012062;28;19944;-77
2021/03/09 01:50:29;;;;;;;8.55;4.47;;;;;;;-1.64;56.70;93150.69;5011740;28;20057;-77
2021/03/09 01:52:56;;;;;;;21.40;6.57;;;;;;;-1.63;57.53;93159.00;5011937;28;20050;-77
2021/03/09 01:55:23;;;;;;;12.70;6.38;;;;;;;-1.62;58.58;93148.03;5011662;28;20080;-77
2021/03/09 01:57:51;;;;;;;14.50;5.00;;;;;;;-1.71;59.06;93154.66;5011827;28;20099;-77
2021/03/09 02:00:18;;;;;;;7.75;4.40;;;;;;;-1.72;59.40;93145.53;5011842;28;20054;-77
2021/03/09 02:02:45;;;;;;;12.70;4.80;;;;;;;-1.70;59.30;93152.94;5011781;28;20050;-77
2021/03/09 02:05:12;;;;;;;8.60;4.53;;;;;;;-1.72;59.67;93153.06;5011679;28;20045;-77
2021/03/09 02:07:39;;;;;;;8.35;6.22;;;;;;;-1.70;59.02;93153.75;5011800;28;20056;-77
2021/03/09 02:10:10;;;;;;;7.10;3.65;;;;;;;-1.75;60.13;93150.84;5011612;28;20050;-77
2021/03/09 02:12:46;;;;;;;9.65;4.25;;;;;;;-1.84;58.89;93151.66;5011451;28;20521;-77
2021/03/09 02:15:21;;;;;;;7.38;3.55;;;;;;;-2.08;60.39;93122.69;5011655;28;20050;-77
2021/03/09 02:17:54;;;;;;;9.43;3.85;;;;;;;-1.92;60.37;93148.09;5011448;28;20058;-77
2021/03/09 02:20:48;;;;;;;5.93;3.67;;;;;;;-1.92;60.04;93147.28;5011572;28;20462;-77
2021/03/09 02:23:31;;;;;;;5.43;3.22;;;;;;;-1.89;60.12;93149.53;5011147;28;20529;-77
2021/03/09 02:26:23;;;;;;;6.07;3.22;;;;;;;-1.89;59.96;93147.81;5011399;28;20053;-77
2021/03/09 02:28:57;;;;;;;5.95;3.15;;;;;;;-1.93;60.68;93144.00;5011119;28;20070;-77
2021/03/09 02:31:28;;;;;;;8.13;2.55;;;;;;;-1.93;59.74;93140.66;5011173;28;20053;-77
2021/03/09 02:33:59;;;;;;;4.60;3.10;;;;;;;-1.94;60.01;93144.91;5011257;28;20045;-77
2021/03/09 02:36:28;;;;;;;4.43;2.33;;;;;;;-1.92;59.73;93149.81;5011136;28;20046;-77
2021/03/09 02:38:57;;;;;;;2.70;1.98;;;;;;;-1.96;58.90;93143.44;5011213;28;20060;-77
2021/03/09 02:41:25;;;;;;;2.67;2.20;;;;;;;-2.00;58.83;93142.91;5010583;28;20560;-77
2021/03/09 02:43:54;;;;;;;4.60;2.35;;;;;;;-2.05;60.60;93140.00;5010906;28;20053;-77
2021/03/09 02:46:22;;;;;;;5.18;2.53;;;;;;;-2.11;60.37;93131.28;5010702;28;20050;-76
2021/03/09 02:48:51;;;;;;;5.45;3.95;;;;;;;-1.97;59.71;93141.84;5011010;28;20049;-77
2021/03/09 02:51:19;;;;;;;6.53;3.53;;;;;;;-2.05;59.14;93142.53;5010666;28;20100;-77
2021/03/09 02:53:50;;;;;;;6.50;3.22;;;;;;;-2.06;59.76;93144.25;5010832;28;20061;-77
2021/03/09 02:56:17;;;;;;;4.72;3.13;;;;;;;-2.20;59.50;93142.94;5010565;28;20042;-76
2021/03/09 02:58:46;;;;;;;9.88;2.95;;;;;;;-2.09;60.37;93144.53;5010384;28;20554;-77
2021/03/09 03:01:13;;;;;;;8.57;4.60;;;;;;;-1.99;61.24;93153.78;5010429;28;20050;-77
2021/03/09 03:03:40;;;;;;;7.85;3.30;;;;;;;-1.95;61.13;93153.38;5010728;28;20053;-77
2021/03/09 03:06:10;;;;;;;9.73;4.18;;;;;;;-1.93;60.81;93155.78;5021001;28;20100;-77
2021/03/09 03:08:37;;;;;;;8.25;3.92;;;;;;;-1.92;61.20;93148.09;5030409;28;20049;-77
2021/03/09 03:11:05;;;;;;;6.03;3.85;;;;;;;-1.90;61.62;93145.44;5030225;28;20065;-77
2021/03/09 03:13:33;;;;;;;10.32;4.70;;;;;;;-1.89;62.11;93149.53;5030310;28;20049;-77
2021/03/09 03:16:00;;;;;;;6.13;3.55;;;;;;;-1.86;61.24;93143.44;5030124;28;20138;-77
2021/03/09 03:18:29;;;;;;;11.65;3.90;;;;;;;-1.91;61.89;93138.78;5029971;28;20053;-77
2021/03/09 03:20:56;;;;;;;4.55;3.22;;;;;;;-1.89;61.26;93147.81;5029916;28;20056;-77
2021/03/09 03:23:24;;;;;;;5.63;3.65;;;;;;;-1.88;60.62;93146.91;5030067;28;20046;-77
2021/03/09 03:25:53;;;;;;;5.57;3.20;;;;;;;-1.88;61.02;93153.66;5029730;28;20053;-76
2021/03/09 03:28:20;;;;;;;12.32;3.35;;;;;;;-1.88;61.14;93151.94;5030045;28;20045;-76
2021/03/09 03:30:46;;;;;;;12.73;4.68;;;;;;;-1.89;60.73;93155.34;5029764;28;20095;-76
2021/03/09 03:33:12;;;;;;;;;;;;;;;-1.95;61.08;93155.91;5030348;28;20049;-76
2021/03/09 03:35:39;;;;;;;5.63;3.33;;;;;;;-2.12;61.56;93147.31;5019488;28;19921;-76
2021/03/09 03:38:06;;;;;;;9.20;3.78;;;;;;;-2.02;61.94;93157.38;5009957;28;20054;-76
2021/03/09 03:40:33;;;;;;;5.38;3.45;;;;;;;-2.02;61.35;93167.44;5009705;28;20046;-77
2021/03/09 03:42:59;;;;;;;4.72;2.78;;;;;;;-1.99;62.34;93162.13;5010066;28;20045;-76
2021/03/09 03:45:25;;;;;;;;;;;;;;;-1.99;62.07;93163.84;5010368;28;20096;-75
2021/03/09 03:47:55;;;;;;;4.68;2.53;;;;;;;-2.00;62.65;93159.75;5009817;28;19921;-75
2021/03/09 03:50:22;;;;;;;2.88;2.05;;;;;;;-2.05;62.23;93155.09;5010089;28;20121;-76
2021/03/09 03:53:00;;;;;;;8.25;4.00;;;;;;;-2.14;61.77;93144.13;5009818;28;20433;-77
2021/03/09 03:55:39;;;;;;;6.18;3.85;;;;;;;-2.13;61.90;93152.47;5006596;28;20104;-76
2021/03/09 03:58:13;;;;;;;5.55;2.80;;;;;;;-2.05;63.55;93163.47;5002267;28;20066;-76
2021/03/09 04:00:40;;;;;;;3.28;2.90;;;;;;;-1.96;63.76;93169.41;5008077;28;20050;-76
2021/03/09 04:03:13;;;;;;;10.25;4.47;;;;;;;-1.94;63.29;93165.03;5009234;28;20485;-76
2021/03/09 04:05:43;;;;;;;10.80;5.40;;;;;;;-1.92;62.96;93167.41;5016629;28;20080;-76
2021/03/09 04:08:09;;;;;;;8.05;3.40;;;;;;;-1.88;63.01;93167.03;5029442;28;20096;-76
2021/03/09 04:10:36;;;;;;;9.25;4.82;;;;;;;-1.81;62.70;93163.97;5029454;28;20417;-76
2021/03/09 04:13:03;;;;;;;12.23;5.22;;;;;;;-1.74;63.43;93180.13;5022896;28;20529;-76
2021/03/09 04:15:31;;;;;;;9.30;4.00;;;;;;;-1.69;63.40;93183.03;5009583;28;20053;-76
2021/03/09 04:17:58;;;;;;;7.80;3.17;;;;;;;-1.65;63.12;93194.44;5009190;28;20527;-76
2021/03/09 04:20:26;;;;;;;10.02;5.18;;;;;;;-1.94;61.46;93185.16;5009260;28;20046;-75
2021/03/09 04:22:53;;;;;;;30.02;14.75;;;;;;;-2.11;62.38;93173.25;5009241;28;20056;-75
2021/03/09 04:25:20;;;;;;;31.98;15.65;;;;;;;-2.08;63.59;93180.56;5009658;28;20414;-75
2021/03/09 04:27:48;;;;;;;33.75;15.25;;;;;;;-2.06;64.13;93176.97;5009039;28;20173;-75
2021/03/09 04:30:15;;;;;;;34.58;12.90;;;;;;;-1.92;63.95;93180.00;5009521;28;20046;-75
2021/03/09 04:32:42;;;;;;;20.70;10.18;;;;;;;-1.96;63.75;93183.72;5009592;28;20046;-75
2021/03/09 04:35:10;;;;;;;17.02;8.48;;;;;;;-1.87;63.30;93180.41;5009681;28;20072;-75
2021/03/09 04:37:37;;;;;;;25.10;10.68;;;;;;;-1.77;63.34;93191.25;5009436;28;20398;-75
2021/03/09 04:40:06;;;;;;;21.75;11.60;;;;;;;-1.84;63.33;93176.81;5009387;28;20050;-75
2021/03/09 04:42:32;;;;;;;16.55;7.63;;;;;;;-1.83;63.32;93178.41;5009552;28;20050;-75
2021/03/09 04:44:59;;;;;;;;;;;;;;;-1.63;63.26;93191.75;5010115;28;20081;-77
2021/03/09 04:47:27;;;;;;;7.28;4.80;;;;;;;-1.70;64.47;93193.25;5009296;28;19921;-76
2021/03/09 04:49:55;;;;;;;11.15;6.47;;;;;;;-1.69;63.70;93187.25;5009397;28;20125;-76
2021/03/09 04:52:21;;;;;;;7.38;5.57;;;;;;;-1.75;63.47;93174.28;5009128;28;20057;-76
2021/03/09 04:54:47;;;;;;;5.57;4.32;;;;;;;-1.63;62.03;93186.72;5009139;28;20046;-76
2021/03/09 04:57:13;;;;;;;;;;;;;;;-1.63;63.21;93185.00;5009849;28;20054;-77
2021/03/09 04:59:40;;;;;;;4.15;3.53;;;;;;;-1.68;63.50;93191.38;5009016;28;20427;-76
2021/03/09 05:02:09;;;;;;;5.20;2.90;;;;;;;-1.65;63.37;93193.63;5009025;28;20432;-76
2021/03/09 05:04:35;;;;;;;7.97;3.78;;;;;;;-1.63;63.68;93190.03;5008976;28;20053;-76
2021/03/09 05:07:01;;;;;;;;;;;;;;;-1.55;63.04;93194.41;5012860;28;20049;-76
2021/03/09 05:09:27;;;;;;;5.20;2.90;;;;;;;-1.55;63.76;93193.59;5008863;28;20746;-76
2021/03/09 05:11:54;;;;;;;11.15;4.75;;;;;;;-1.50;63.11;93186.44;5009234;28;20049;-76
2021/03/09 05:14:20;;;;;;;;;;;;;;;-1.43;63.70;93179.91;5012101;28;20049;-76
2021/03/09 05:16:46;;;;;;;13.45;8.00;;;;;;;-1.38;63.63;93184.56;5012318;28;20406;-76
2021/03/09 05:19:13;;;;;;;;;;;;;;;-1.35;64.04;93189.31;5013448;28;20057;-76
2021/03/09 05:21:39;;;;;;;10.18;4.60;;;;;;;-1.32;63.80;93190.75;5012462;28;19926;-76
2021/03/09 05:24:06;;;;;;;;;;;;;;;-1.24;64.03;93196.69;5012989;28;20100;-76
2021/03/09 05:26:32;;;;;;;8.13;3.85;;;;;;;-1.26;63.49;93185.97;5012794;28;19922;-78
2021/03/09 05:28:59;;;;;;;9.43;4.72;;;;;;;-1.15;63.25;93189.25;5012509;28;20075;-79
2021/03/09 05:31:25;;;;;;;10.60;4.82;;;;;;;-1.09;63.05;93186.97;5007882;28;20124;-77
2021/03/09 05:33:51;;;;;;;14.10;7.15;;;;;;;-1.01;62.71;93190.53;5010084;28;20532;-76
2021/03/09 05:36:18;;;;;;;12.77;6.68;;;;;;;-0.87;62.89;93196.84;5011592;28;20057;-76
2021/03/09 05:38:44;;;;;;;10.35;6.10;;;;;;;-0.95;62.77;93167.28;5011450;28;20058;-77
2021/03/09 05:41:11;;;;;;;10.40;5.32;;;;;;;-0.66;62.52;93195.81;5012133;28;20056;-77
2021/03/09 05:43:37;;;;;;;13.45;6.80;;;;;;;-0.57;62.18;93194.94;5011957;28;20046;-77
2021/03/09 05:46:03;;;;;;;;;;;;;;;-0.47;61.28;93200.72;5012483;28;20479;-78
2021/03/09 05:48:29;;;;;;;9.50;6.35;;;;;;;-0.43;61.37;93198.72;5012206;28;19944;-77
2021/03/09 05:50:55;;;;;;;;;;;;;;;-0.37;61.42;93197.34;5012289;28;20049;-77
2021/03/09 05:53:23;;;;;;;10.43;7.40;;;;;;;-0.35;61.41;93192.94;5011897;28;19987;-76
2021/03/09 05:55:49;;;;;;;26.02;9.90;;;;;;;-0.23;61.24;93183.44;5011912;28;20053;-76
2021/03/09 05:58:17;;;;;;;18.27;10.68;;;;;;;-0.07;61.48;93187.84;5011745;28;20053;-76
2021/03/09 06:00:43;;;;;;;17.38;9.45;;;;;;;0.14;60.55;93179.97;5011222;28;20065;-77
2021/03/09 06:03:09;;;;;;;;;;;;;;;0.46;59.73;93193.75;5012281;28;20042;-78
2021/03/09 06:05:35;;;;;;;13.98;7.95;;;;;;;0.63;59.31;93196.38;5011824;28;19921;-78
2021/03/09 06:08:02;;;;;;;11.90;7.38;;;;;;;0.81;58.16;93206.44;5011693;28;20056;-79
2021/03/09 06:10:29;;;;;;;21.80;8.93;;;;;;;0.98;58.46;93206.53;5011700;28;20041;-77
2021/03/09 06:12:55;;;;;;;19.63;8.55;;;;;;;1.04;57.62;93214.31;5011278;28;20049;-82
2021/03/09 06:15:21;;;;;;;;;;;;;;;1.09;57.71;93210.53;5012088;28;20148;-82
2021/03/09 06:17:54;;;;;;;18.80;8.82;;;;;;;1.06;57.84;93191.38;5011452;28;19928;-82
2021/03/09 06:20:23;;;;;;;13.77;7.53;;;;;;;1.36;56.38;93211.28;5011296;28;20057;-82
2021/03/09 06:22:51;;;;;;;16.67;8.40;;;;;;;1.35;56.23;93191.97;5011223;28;20049;-83
2021/03/09 06:25:19;;;;;;;24.88;11.27;;;;;;;1.45;56.15;93198.47;5011185;28;20405;-83
2021/03/09 06:27:46;;;;;;;20.60;9.52;;;;;;;1.51;56.38;93183.63;5010977;28;20062;-83
2021/03/09 06:30:14;;;;;;;21.95;11.13;;;;;;;1.81;55.88;93201.75;5010097;28;20100;-84
2021/03/09 06:32:42;;;;;;;29.20;14.45;;;;;;;2.02;54.53;93211.41;5010777;28;20058;-82
2021/03/09 06:35:31;;;;;;;27.38;13.02;;;;;;;2.18;54.92;93215.69;5010977;28;20050;-83
2021/03/09 06:38:18;;;;;;;25.20;11.60;;;;;;;2.17;53.83;93185.47;5011082;28;20054;-83
2021/03/09 06:40:45;;;;;;;35.80;13.05;;;;;;;2.61;53.22;93219.81;5010636;28;20132;-82
2021/03/09 06:43:17;;;;;;;25.48;10.27;;;;;;;2.78;52.54;93221.38;5010800;28;20088;-86
2021/03/09 06:45:43;;;;;;;19.20;10.02;;;;;;;2.87;52.08;93218.84;5011065;28;20108;-83
2021/03/09 06:48:18;;;;;;;;;;;;;;;2.90;51.70;93218.50;5011520;28;20054;-83
2021/03/09 06:50:44;;;;;;;18.30;10.52;;;;;;;2.89;51.78;93214.38;5010830;28;19936;-83
2021/03/09 06:53:11;;;;;;;22.83;9.73;;;;;;;3.04;52.33;93220.38;5010501;28;20058;-83
2021/03/09 06:55:37;;;;;;;;;;;;;;;3.23;51.67;93220.16;5011326;28;20069;-85
2021/03/09 06:58:05;;;;;;;25.50;8.80;;;;;;;3.25;50.98;93211.44;5010408;28;20436;-85
2021/03/09 07:00:32;;;;;;;37.75;13.45;;;;;;;3.42;50.97;93224.06;5010776;28;20077;-85
2021/03/09 07:02:58;;;;;;;25.98;11.25;;;;;;;3.57;51.12;93230.00;5010308;28;20049;-85
2021/03/09 07:05:25;;;;;;;21.23;11.00;;;;;;;3.82;50.31;93229.09;5010683;28;20045;-85
2021/03/09 07:07:51;;;;;;;;;;;;;;;4.08;50.10;93221.16;5011185;28;20452;-85
2021/03/09 07:10:18;;;;;;;26.73;10.57;;;;;;;4.31;49.82;93225.47;5010669;28;19972;-86
2021/03/09 07:12:46;;;;;;;20.55;12.88;;;;;;;4.55;48.51;93226.22;5010346;28;20061;-85
2021/03/09 07:15:14;;;;;;;31.75;12.40;;;;;;;4.79;48.14;93224.44;5010375;28;20050;-85
2021/03/09 07:17:42;;;;;;;36.13;13.85;;;;;;;4.89;48.48;93219.06;5010216;28;20058;-85
2021/03/09 07:20:10;;;;;;;27.15;14.60;;;;;;;5.06;47.63;93222.25;5010592;28;20054;-83
2021/03/09 07:22:37;;;;;;;33.55;13.15;;;;;;;5.34;46.71;93236.94;5010242;28;20494;-83
2021/03/09 07:25:06;;;;;;;30.83;13.88;;;;;;;5.67;46.45;93231.44;5009995;28;20058;-83
2021/03/09 07:27:44;;;;;;;20.73;10.43;;;;;;;5.81;45.49;93234.13;5010457;28;20405;-83
2021/03/09 07:30:12;;;;;;;25.60;11.40;;;;;;;6.03;44.87;93235.00;5010413;28;20072;-84
2021/03/09 07:32:40;;;;;;;23.60;9.65;;;;;;;6.24;43.89;93223.22;5008783;28;20042;-83
2021/03/09 07:35:08;;;;;;;18.63;8.18;;;;;;;6.24;44.19;93225.75;5010173;28;20050;-83
2021/03/09 07:37:37;;;;;;;28.33;8.88;;;;;;;6.38;44.99;93216.47;5009686;28;20057;-84
2021/03/09 07:40:05;;;;;;;26.10;9.63;;;;;;;6.52;43.57;93196.94;5010193;28;21262;-83
2021/03/09 07:42:31;;;;;;;30.27;8.77;;;;;;;6.76;43.73;93210.28;5010144;28;20468;-84
2021/03/09 07:44:58;;;;;;;;;;;;;;;6.67;43.28;93218.06;5010665;28;20952;-84
2021/03/09 07:47:24;;;;;;;18.45;7.00;;;;;;;6.64;43.97;93212.56;5009843;28;19955;-84
2021/03/09 07:49:52;;;;;;;19.85;8.32;;;;;;;6.49;43.98;93210.09;5010099;28;20049;-84
2021/03/09 07:52:20;;;;;;;15.25;7.30;;;;;;;6.49;42.10;93212.66;5009895;28;20084;-84
2021/03/09 07:55:19;;;;;;;18.95;6.55;;;;;;;6.58;42.78;93211.53;5009507;28;20053;-84
2021/03/09 07:57:47;;;;;;;14.25;8.02;;;;;;;6.73;43.19;93214.00;5009511;28;20054;-84
2021/03/09 08:00:15;;;;;;;15.52;7.70;;;;;;;6.74;41.77;93212.22;5009883;28;20050;-84
2021/03/09 08:02:52;;;;;;;18.08;7.28;;;;;;;6.80;43.01;93206.38;5009475;28;20531;-85
2021/03/09 08:05:20;;;;;;;17.42;7.13;;;;;;;6.81;43.07;93208.75;5009799;28;20050;-85
2021/03/09 08:07:58;;;;;;;12.98;6.28;;;;;;;6.89;40.32;93209.59;5009286;28;20505;-85
2021/03/09 08:10:45;;;;;;;14.90;6.25;;;;;;;6.54;40.60;93189.91;5009642;28;20054;-85
2021/03/09 08:13:22;;;;;;;14.55;5.85;;;;;;;6.77;41.55;93201.66;5010101;28;20433;-84
2021/03/09 08:15:48;;;;;;;7.43;5.25;;;;;;;6.94;40.51;93202.94;5009233;28;20574;-84
2021/03/09 08:18:29;;;;;;;;;;;;;;;7.04;40.91;93201.84;5009778;28;20058;-85
2021/03/09 08:20:57;;;;;;;7.13;3.70;;;;;;;7.09;40.11;93204.63;5008773;28;20296;-84
2021/03/09 08:23:57;;;;;;;11.20;4.25;;;;;;;7.13;39.60;93189.69;5009553;28;20054;-89
2021/03/09 08:26:43;;;;;;;8.73;5.05;;;;;;;7.10;38.65;93190.88;5004710;28;20519;-85
2021/03/09 08:29:27;;;;;;;;;;;;;;;6.98;39.89;93193.16;5010031;28;20057;-84
2021/03/09 08:32:26;;;;;;;7.15;3.80;;;;;;;6.68;39.54;93183.16;5009692;28;19922;-84
2021/03/09 08:35:32;;;;;;;9.20;4.28;;;;;;;6.34;40.20;93202.50;5009406;28;20046;-85
2021/03/09 08:38:12;;;;;;;8.65;4.35;;;;;;;6.41;41.61;93205.91;5009556;28;20049;-85
2021/03/09 08:41:07;;;;;;;8.95;4.30;;;;;;;6.64;41.33;93175.06;5008917;28;20129;-85
2021/03/09 08:43:35;;;;;;;23.05;8.13;;;;;;;7.03;40.57;93193.38;5009310;28;20406;-84
2021/03/09 08:46:03;;;;;;;13.73;5.85;;;;;;;7.22;39.88;93203.88;5009198;28;20050;-84
2021/03/09 08:48:47;;;;;;;10.77;3.97;;;;;;;7.20;39.53;93193.88;5012515;28;20049;-84
2021/03/09 08:51:47;;;;;;;8.93;4.28;;;;;;;7.36;40.21;93202.19;5013051;28;20682;-84
2021/03/09 08:54:28;;;;;;;11.57;5.03;;;;;;;7.57;39.11;93200.50;5013249;28;20050;-84
2021/03/09 08:56:57;;;;;;;13.00;4.68;;;;;;;7.63;38.28;93186.94;5012688;28;20445;-85
2021/03/09 08:59:25;;;;;;;9.70;4.40;;;;;;;7.47;38.33;93175.31;5013050;28;20054;-84
2021/03/09 09:01:53;;;;;;;16.08;5.40;;;;;;;7.61;38.98;93187.16;5013007;28;20050;-84
2021/03/09 09:04:20;;;;;;;14.30;5.82;;;;;;;7.17;37.80;93201.13;5013083;28;20096;-85
2021/03/09 09:06:47;;;;;;;8.82;3.50;;;;;;;7.19;39.23;93194.81;5012746;28;20054;-84
2021/03/09 09:09:31;;;;;;;8.82;4.50;;;;;;;7.35;38.96;93195.50;5012745;28;20054;-84
2021/03/09 09:11:58;;;;;;;10.95;4.38;;;;;;;7.37;38.65;93180.78;5012772;28;20060;-84
2021/03/09 09:14:26;;;;;;;10.20;4.60;;;;;;;7.35;39.28;93185.28;5012701;28;20492;-84
2021/03/09 09:16:53;;;;;;;7.25;3.90;;;;;;;7.39;38.86;93191.59;5012381;28;20046;-84
2021/03/09 09:19:20;;;;;;;8.07;3.90;;;;;;;7.42;38.81;93196.31;5012713;28;20549;-84
2021/03/09 09:21:48;;;;;;;11.30;4.00;;;;;;;7.41;38.42;93187.06;5012350;28;20045;-84
2021/03/09 09:24:24;;;;;;;12.10;5.32;;;;;;;7.47;38.88;93172.75;5012405;28;20052;-84
2021/03/09 09:27:04;;;;;;;18.80;4.57;;;;;;;7.61;38.87;93187.16;5012578;28;20073;-83
2021/03/09 09:29:31;;;;;;;11.30;5.45;;;;;;;7.52;39.43;93178.06;5012439;28;20053;-85
2021/03/09 09:31:59;;;;;;;20.67;4.35;;;;;;;7.62;38.44;93195.59;5012520;28;20054;-84
2021/03/09 09:34:37;;;;;;;7.88;4.07;;;;;;;7.51;37.86;93188.47;5012205;28;20386;-84
2021/03/09 09:37:16;;;;;;;14.35;4.40;;;;;;;7.04;38.23;93171.19;5011949;28;20093;-84
2021/03/09 09:39:43;;;;;;;9.77;3.83;;;;;;;6.93;38.91;93177.59;5012132;28;20528;-84
2021/03/09 09:42:19;;;;;;;10.32;3.72;;;;;;;7.17;38.31;93193.47;5012229;28;20069;-84
2021/03/09 09:44:46;;;;;;;13.85;5.18;;;;;;;7.26;38.01;93191.53;5012077;28;20429;-84
2021/03/09 09:47:14;;;;;;;13.68;5.32;;;;;;;7.39;39.97;93178.81;5012080;28;20076;-84
2021/03/09 09:49:44;;;;;;;10.95;4.63;;;;;;;7.58;39.23;93179.06;5011976;28;20489;-84
2021/03/09 09:52:18;;;;;;;11.05;5.00;;;;;;;7.79;38.33;93185.03;5012005;28;20061;-83
2021/03/09 09:54:54;;;;;;;9.57;3.90;;;;;;;8.00;37.54;93200.25;5011832;28;20053;-84
2021/03/09 09:57:23;;;;;;;10.32;4.45;;;;;;;8.16;37.07;93191.41;5012248;28;20057;-85
2021/03/09 09:59:49;;;;;;;24.95;7.32;;;;;;;8.29;37.39;93174.50;5011093;28;20104;-84
2021/03/09 10:02:21;;;;;;;18.20;7.45;;;;;;;8.40;37.00;93168.00;5011939;28;20042;-83
2021/03/09 10:04:48;;;;;;;37.60;20.50;;;;;;;8.50;37.43;93170.16;5011760;28;20045;-83
2021/03/09 10:07:16;;;;;;;9.35;6.40;;;;;;;8.68;35.50;93182.41;5012028;28;20053;-84
2021/03/09 10:10:06;;;;;;;10.27;5.82;;;;;;;8.69;36.15;93143.00;5011613;28;20574;-83
2021/03/09 10:12:34;;;;;;;12.38;5.90;;;;;;;9.08;36.47;93168.75;5011500;28;20050;-83
2021/03/09 10:15:01;;;;;;;11.52;5.22;;;;;;;9.15;36.09;93166.16;5011679;28;20046;-84
2021/03/09 10:17:27;;;;;;;18.05;8.63;;;;;;;9.40;36.17;93170.63;5011543;28;20116;-84
2021/03/09 10:19:54;;;;;;;;;;;;;;;9.60;34.32;93162.84;5012194;28;20061;-84
2021/03/09 10:22:22;;;;;;;19.48;6.63;;;;;;;9.58;35.23;93163.03;5011392;28;20411;-84
2021/03/09 10:24:49;;;;;;;25.92;12.68;;;;;;;9.54;34.92;93153.41;5011480;28;20046;-83
2021/03/09 10:27:15;;;;;;;;;;;;;;;9.61;33.31;93160.09;5006875;28;20509;-84
2021/03/09 10:29:43;;;;;;;7.25;4.47;;;;;;;9.47;33.27;93146.53;5009305;28;19922;-84
2021/03/09 10:32:14;;;;;;;9.65;5.13;;;;;;;9.61;33.76;93149.03;5011164;28;20045;-84
2021/03/09 10:34:42;;;;;;;22.35;10.52;;;;;;;9.68;34.00;93160.03;5011219;28;20046;-84
2021/03/09 10:37:10;;;;;;;29.42;13.48;;;;;;;9.50;34.26;93132.53;5011323;28;20051;-84
2021/03/09 10:39:37;;;;;;;23.67;8.50;;;;;;;9.70;34.29;93154.69;5011034;28;20049;-84
2021/03/09 10:42:26;;;;;;;8.73;4.95;;;;;;;9.62;34.52;93151.41;5010852;28;20583;-84
2021/03/09 10:44:54;;;;;;;10.80;4.30;;;;;;;9.54;34.99;93143.16;5011273;28;20050;-84
2021/03/09 10:47:21;;;;;;;9.05;4.88;;;;;;;9.46;34.87;93119.31;5011384;28;20061;-84
2021/03/09 10:49:47;;;;;;;13.30;7.47;;;;;;;9.59;34.39;93130.50;5010739;28;20432;-85
2021/03/09 10:52:13;;;;;;;;;;;;;;;9.77;34.52;93140.09;5011169;28;20056;-83
2021/03/09 10:54:41;;;;;;;8.88;4.28;;;;;;;9.73;32.83;93136.34;5010941;28;19925;-84
2021/03/09 10:57:08;;;;;;;10.55;4.32;;;;;;;9.75;32.67;93134.34;5010513;28;20054;-83
2021/03/09 10:59:35;;;;;;;12.23;5.43;;;;;;;9.81;32.49;93130.97;5010810;28;20050;-83
2021/03/09 11:02:05;;;;;;;9.63;5.63;;;;;;;9.72;34.03;93129.66;5010863;28;20096;-83
2021/03/09 11:04:32;;;;;;;6.75;4.20;;;;;;;9.88;34.51;93129.16;5010977;28;20050;-84
2021/03/09 11:06:58;;;;;;;;;;;;;;;9.88;35.03;93124.03;5010942;28;20064;-84
2021/03/09 11:09:24;;;;;;;8.18;4.07;;;;;;;9.84;34.45;93127.19;5010701;28;19925;-84
2021/03/09 11:11:50;;;;;;;;;;;;;;;9.83;34.75;93117.94;5010241;28;20042;-84
2021/03/09 11:14:16;;;;;;;9.27;4.60;;;;;;;9.82;34.59;93108.66;5010417;28;19933;-83
2021/03/09 11:16:42;;;;;;;;;;;;;;;9.92;34.15;93116.69;5010915;28;20045;-83
2021/03/09 11:19:10;;;;;;;7.47;4.07;;;;;;;9.98;33.14;93112.50;5010274;28;19968;-84
2021/03/09 11:21:36;;;;;;;8.35;4.55;;;;;;;9.96;32.66;93105.00;5010549;28;20172;-84
2021/03/09 11:24:02;;;;;;;;;;;;;;;9.88;34.28;93105.28;5011139;28;20046;-84
2021/03/09 11:26:30;;;;;;;10.80;4.70;;;;;;;9.82;34.99;93101.75;5011354;28;19925;-83
2021/03/09 11:28:56;;;;;;;11.18;4.70;;;;;;;9.93;34.03;93092.63;5010544;28;20088;-84
2021/03/09 11:31:23;;;;;;;9.07;4.25;;;;;;;9.87;33.18;93081.38;5010342;28;20053;-84
2021/03/09 11:33:50;;;;;;;9.82;4.38;;;;;;;10.10;34.29;93081.84;5005766;28;20092;-83
2021/03/09 11:36:17;;;;;;;12.73;6.28;;;;;;;10.16;33.69;93075.84;5008304;28;20046;-83
2021/03/09 11:38:45;;;;;;;9.38;4.75;;;;;;;10.05;31.94;93085.03;5009476;28;20563;-83
2021/03/09 11:41:13;;;;;;;30.30;10.55;;;;;;;9.72;33.22;93066.31;5009745;28;20394;-83
2021/03/09 11:43:40;;;;;;;16.92;6.30;;;;;;;9.67;32.90;93067.94;5010429;28;20352;-83
2021/03/09 11:46:07;;;;;;;17.67;5.13;;;;;;;9.87;33.91;93072.94;5009908;28;20041;-83
2021/03/09 11:48:33;;;;;;;6.88;4.13;;;;;;;9.93;33.99;93072.09;5010125;28;20054;-83
2021/03/09 11:51:00;;;;;;;5.05;2.47;;;;;;;9.82;33.18;93060.69;5009720;28;20497;-83